Time;durP1;ratioP1;P1;durP2;ratioP2;P2;SDS_P1;SDS_P2;PMS_P1;PMS_P2;Temp;Humidity;BMP_temperature;BMP_pressure;BME280_temperature;BME280_humidity;BME280_pressure;Samples;Min_cycle;Max_cycle;Signal;HPM_P1;HPM_P2
2022/11/12 00:00:10;;;;;;;21.75;9.23;;;;;;;;;;4998660;28;20514;-67
2022/11/12 00:02:35;;;;;;;24.52;9.80;;;;;;;;;;4991344;28;20736;-65
2022/11/12 00:05:01;;;;;;;25.25;10.80;;;;;;;;;;4993509;28;20034;-64
2022/11/12 00:07:26;;;;;;;23.15;9.73;;;;;;;;;;4996070;28;20249;-66
2022/11/12 00:09:51;;;;;;;27.63;9.82;;;;;;;;;;4998845;28;20511;-65
2022/11/12 00:12:16;;;;;;;26.70;10.73;;;;;;;;;;4992433;28;20023;-66
2022/11/12 00:14:42;;;;;;;26.73;9.70;;;;;;;;;;4991490;28;20026;-66
2022/11/12 00:17:07;;;;;;;24.77;9.13;;;;;;;;;;4991512;28;20113;-66
2022/11/12 00:19:32;;;;;;;22.73;8.82;;;;;;;;;;4999093;28;20411;-64
2022/11/12 00:21:57;;;;;;;19.35;8.80;;;;;;;;;;5002478;28;20029;-65
2022/11/12 00:24:23;;;;;;;24.60;8.55;;;;;;;;;;5000500;28;20026;-66
2022/11/12 00:26:48;;;;;;;16.15;8.15;;;;;;;;;;4989875;28;20101;-65
2022/11/12 00:29:13;;;;;;;23.17;9.15;;;;;;;;;;4991734;28;20022;-64
2022/11/12 00:31:38;;;;;;;31.42;9.27;;;;;;;;;;4990540;28;20089;-66
2022/11/12 00:34:03;;;;;;;20.40;8.60;;;;;;;;;;4991230;28;20030;-65
2022/11/12 00:36:29;;;;;;;20.35;8.48;;;;;;;;;;4989136;28;20033;-64
2022/11/12 00:38:54;;;;;;;25.35;9.55;;;;;;;;;;4990322;28;20022;-65
2022/11/12 00:41:19;;;;;;;20.30;8.95;;;;;;;;;;4991173;28;20022;-64
2022/11/12 00:43:45;;;;;;;23.13;9.98;;;;;;;;;;4991618;28;20046;-64
2022/11/12 00:46:10;;;;;;;22.52;9.18;;;;;;;;;;4991878;28;20022;-65
2022/11/12 00:48:35;;;;;;;23.92;9.40;;;;;;;;;;4996772;28;20022;-63
2022/11/12 00:51:04;;;;;;;21.35;9.18;;;;;;;;;;4999501;28;20034;-63
2022/11/12 00:53:30;;;;;;;19.50;7.82;;;;;;;;;;5001580;28;20030;-63
2022/11/12 00:56:02;;;;;;;20.33;8.88;;;;;;;;;;4997609;28;20478;-65
2022/11/12 00:58:28;;;;;;;32.05;9.10;;;;;;;;;;4991212;28;20048;-65
2022/11/12 01:00:53;;;;;;;24.75;8.57;;;;;;;;;;4991965;28;20165;-66
2022/11/12 01:03:19;;;;;;;27.05;9.57;;;;;;;;;;4991356;28;20093;-66
2022/11/12 01:05:44;;;;;;;20.48;8.10;;;;;;;;;;4992410;28;20372;-64
2022/11/12 01:08:09;;;;;;;24.83;9.43;;;;;;;;;;4996608;28;20472;-64
2022/11/12 01:10:35;;;;;;;28.17;9.07;;;;;;;;;;4992277;28;20526;-66
2022/11/12 01:13:00;;;;;;;24.75;10.07;;;;;;;;;;4992146;28;20022;-64
2022/11/12 01:15:25;;;;;;;30.73;10.70;;;;;;;;;;4992170;28;20018;-66
2022/11/12 01:17:51;;;;;;;38.03;10.10;;;;;;;;;;4990273;28;20022;-65
2022/11/12 01:20:16;;;;;;;31.40;11.00;;;;;;;;;;4991023;28;20022;-64
2022/11/12 01:22:41;;;;;;;27.23;9.55;;;;;;;;;;4991505;28;20101;-66
2022/11/12 01:25:06;;;;;;;35.10;10.80;;;;;;;;;;4992048;28;20022;-64
2022/11/12 01:27:32;;;;;;;27.67;9.57;;;;;;;;;;4990672;28;20037;-64
2022/11/12 01:29:58;;;;;;;26.25;8.88;;;;;;;;;;4992125;28;20101;-65
2022/11/12 01:32:23;;;;;;;16.42;8.25;;;;;;;;;;4989535;28;20511;-66
2022/11/12 01:34:49;;;;;;;25.00;9.43;;;;;;;;;;4991741;28;20026;-65
2022/11/12 01:37:14;;;;;;;19.67;9.32;;;;;;;;;;4990200;28;20046;-64
2022/11/12 01:39:39;;;;;;;27.60;8.90;;;;;;;;;;4991985;28;20022;-65
2022/11/12 01:42:05;;;;;;;26.38;9.07;;;;;;;;;;4999103;28;20065;-65
2022/11/12 01:44:38;;;;;;;20.10;8.88;;;;;;;;;;4999825;28;20030;-63
2022/11/12 01:47:06;;;;;;;21.60;9.35;;;;;;;;;;4992485;28;20014;-65
2022/11/12 01:49:50;;;;;;;23.15;9.90;;;;;;;;;;5003854;28;20412;-63
2022/11/12 01:52:24;;;;;;;26.10;9.52;;;;;;;;;;4979850;28;20033;-64
2022/11/12 01:54:50;;;;;;;23.60;8.10;;;;;;;;;;4990298;28;20022;-65
2022/11/12 01:57:17;;;;;;;19.20;9.10;;;;;;;;;;4989938;28;20077;-65
2022/11/12 01:59:43;;;;;;;21.55;8.35;;;;;;;;;;4991378;28;20018;-64
2022/11/12 02:02:09;;;;;;;30.40;8.85;;;;;;;;;;4990729;28;20627;-65
2022/11/12 02:04:36;;;;;;;21.98;9.30;;;;;;;;;;4991001;28;20064;-63
2022/11/12 02:07:01;;;;;;;17.95;8.73;;;;;;;;;;4992046;28;20072;-64
2022/11/12 02:09:27;;;;;;;24.52;10.70;;;;;;;;;;4994786;28;20047;-65
2022/11/12 02:11:52;;;;;;;26.25;11.15;;;;;;;;;;4990613;28;20473;-63
2022/11/12 02:14:17;;;;;;;19.92;8.93;;;;;;;;;;4991136;28;20388;-65
2022/11/12 02:16:43;;;;;;;28.80;9.23;;;;;;;;;;4990274;28;20022;-64
2022/11/12 02:19:10;;;;;;;26.77;9.73;;;;;;;;;;4993142;28;20025;-65
2022/11/12 02:21:35;;;;;;;26.05;9.63;;;;;;;;;;5006255;28;20018;-64
2022/11/12 02:24:13;;;;;;;26.08;9.20;;;;;;;;;;4990859;28;20041;-66
2022/11/12 02:26:50;;;;;;;18.98;9.15;;;;;;;;;;4990940;28;20026;-67
2022/11/12 02:29:15;;;;;;;25.48;10.48;;;;;;;;;;4991829;28;20496;-66
2022/11/12 02:31:40;;;;;;;19.83;9.43;;;;;;;;;;4990425;28;20061;-65
2022/11/12 02:34:05;;;;;;;23.90;10.05;;;;;;;;;;4988955;28;20030;-64
2022/11/12 02:36:30;;;;;;;26.92;10.52;;;;;;;;;;4989421;28;20062;-64
2022/11/12 02:38:56;;;;;;;26.40;10.10;;;;;;;;;;4990084;28;20553;-64
2022/11/12 02:41:21;;;;;;;24.40;9.73;;;;;;;;;;4988936;28;20014;-63
2022/11/12 02:43:46;;;;;;;27.17;10.43;;;;;;;;;;4990420;28;20118;-64
2022/11/12 02:46:12;;;;;;;28.88;9.98;;;;;;;;;;4989636;28;20019;-64
2022/11/12 02:48:37;;;;;;;22.15;10.18;;;;;;;;;;4998580;28;20029;-64
2022/11/12 02:51:03;;;;;;;30.08;9.45;;;;;;;;;;4998291;28;20030;-64
2022/11/12 02:53:28;;;;;;;26.55;10.43;;;;;;;;;;4998353;28;20060;-67
2022/11/12 02:55:53;;;;;;;37.80;11.50;;;;;;;;;;4995809;28;20558;-65
2022/11/12 02:58:21;;;;;;;32.17;11.20;;;;;;;;;;4989575;28;20026;-64
2022/11/12 03:00:46;;;;;;;22.85;10.52;;;;;;;;;;4997328;28;20531;-64
2022/11/12 03:03:12;;;;;;;24.98;8.88;;;;;;;;;;4989462;28;20030;-64
2022/11/12 03:05:37;;;;;;;25.30;9.02;;;;;;;;;;4989867;28;20060;-66
2022/11/12 03:08:03;;;;;;;38.25;9.82;;;;;;;;;;4988901;28;20157;-66
2022/11/12 03:10:29;;;;;;;27.88;10.38;;;;;;;;;;4989647;28;20022;-64
2022/11/12 03:12:58;;;;;;;28.73;9.45;;;;;;;;;;4990012;28;20180;-65
2022/11/12 03:15:24;;;;;;;17.45;9.00;;;;;;;;;;4990074;28;20026;-65
2022/11/12 03:17:49;;;;;;;24.52;9.43;;;;;;;;;;4988703;28;20250;-65
2022/11/12 03:20:14;;;;;;;29.90;10.05;;;;;;;;;;4990227;28;20018;-64
2022/11/12 03:22:40;;;;;;;28.38;9.63;;;;;;;;;;4989081;28;20015;-66
2022/11/12 03:25:06;;;;;;;22.58;10.07;;;;;;;;;;4990108;28;20025;-64
2022/11/12 03:27:31;;;;;;;21.08;9.77;;;;;;;;;;4988342;28;20101;-67
2022/11/12 03:29:56;;;;;;;26.40;9.05;;;;;;;;;;4990116;28;20469;-66
2022/11/12 03:32:22;;;;;;;23.55;9.90;;;;;;;;;;4988994;28;20503;-66
2022/11/12 03:34:47;;;;;;;29.30;9.63;;;;;;;;;;4989612;28;20459;-64
2022/11/12 03:37:12;;;;;;;24.23;9.20;;;;;;;;;;4987851;28;20069;-63
2022/11/12 03:39:38;;;;;;;23.10;8.90;;;;;;;;;;4990366;28;20451;-65
2022/11/12 03:42:03;;;;;;;24.85;9.80;;;;;;;;;;4997580;28;20436;-63
2022/11/12 03:44:28;;;;;;;19.33;8.73;;;;;;;;;;5003838;28;20026;-64
2022/11/12 03:46:53;;;;;;;20.70;8.85;;;;;;;;;;4987468;28;20023;-65
2022/11/12 03:49:19;;;;;;;23.13;9.90;;;;;;;;;;5001844;28;20037;-65
2022/11/12 03:51:45;;;;;;;24.92;10.18;;;;;;;;;;4990624;28;20431;-64
2022/11/12 03:54:10;;;;;;;23.75;10.75;;;;;;;;;;4989335;28;20027;-65
2022/11/12 03:56:36;;;;;;;25.50;10.55;;;;;;;;;;4988421;28;20018;-65
2022/11/12 03:59:01;;;;;;;21.52;10.20;;;;;;;;;;4989665;28;20548;-66
2022/11/12 04:01:26;;;;;;;30.38;10.73;;;;;;;;;;4989104;28;20031;-67
2022/11/12 04:03:51;;;;;;;27.52;9.57;;;;;;;;;;4989449;28;20408;-62
2022/11/12 04:09:00;;;;;;;24.80;9.20;;;;;;;;;;4992786;28;20096;-65
2022/11/12 04:11:26;;;;;;;20.05;8.88;;;;;;;;;;4989230;28;20030;-65
2022/11/12 04:13:51;;;;;;;18.05;9.15;;;;;;;;;;4989250;28;20148;-65
2022/11/12 04:22:06;;;;;;;21.10;8.75;;;;;;;;;;5008133;28;20072;-66
2022/11/12 04:27:19;;;;;;;20.88;9.27;;;;;;;;;;4991900;28;20161;-63
2022/11/12 04:32:29;;;;;;;28.85;10.73;;;;;;;;;;4992404;28;20104;-62
2022/11/12 04:34:55;;;;;;;27.10;11.07;;;;;;;;;;4992312;28;20412;-65
2022/11/12 04:37:20;;;;;;;32.90;11.48;;;;;;;;;;4991610;28;20018;-64
2022/11/12 04:39:46;;;;;;;29.42;10.98;;;;;;;;;;4992268;28;20030;-64
2022/11/12 04:45:04;;;;;;;30.58;12.27;;;;;;;;;;4992547;28;20037;-64
2022/11/12 04:47:29;;;;;;;31.00;11.85;;;;;;;;;;4997838;28;20478;-62
2022/11/12 04:49:55;;;;;;;32.25;12.52;;;;;;;;;;5002341;28;20026;-63
2022/11/12 04:52:20;;;;;;;25.88;11.52;;;;;;;;;;4999081;28;20610;-64
2022/11/12 04:54:46;;;;;;;35.92;11.88;;;;;;;;;;5001095;28;20046;-66
2022/11/12 04:57:12;;;;;;;26.75;11.10;;;;;;;;;;4991527;28;20362;-64
2022/11/12 04:59:37;;;;;;;29.17;11.38;;;;;;;;;;4992192;28;20101;-65
2022/11/12 05:02:02;;;;;;;26.10;10.65;;;;;;;;;;4991893;28;20503;-64
2022/11/12 05:04:28;;;;;;;31.00;11.38;;;;;;;;;;4991465;28;20415;-66
2022/11/12 05:06:56;;;;;;;31.45;12.07;;;;;;;;;;4992152;28;20526;-65
2022/11/12 05:09:25;;;;;;;21.35;10.68;;;;;;;;;;4995784;28;20033;-63
2022/11/12 05:11:51;;;;;;;22.25;10.15;;;;;;;;;;4992057;28;20029;-66
2022/11/12 05:14:16;;;;;;;28.45;12.23;;;;;;;;;;4992011;28;20014;-66
2022/11/12 05:16:41;;;;;;;25.42;10.65;;;;;;;;;;4990607;28;20081;-64
2022/11/12 05:19:07;;;;;;;31.90;10.25;;;;;;;;;;4991267;28;20037;-64
2022/11/12 05:24:15;;;;;;;20.25;9.77;;;;;;;;;;4991764;28;20029;-66
2022/11/12 05:26:41;;;;;;;21.75;10.00;;;;;;;;;;4990723;28;20400;-65
2022/11/12 05:29:06;;;;;;;30.77;11.30;;;;;;;;;;4991489;28;20055;-66
2022/11/12 05:31:32;;;;;;;26.50;10.38;;;;;;;;;;4991168;28;20018;-64
2022/11/12 05:33:57;;;;;;;21.08;9.38;;;;;;;;;;4991055;28;20078;-65
2022/11/12 05:36:22;;;;;;;30.70;12.00;;;;;;;;;;4990741;28;20034;-65
2022/11/12 05:38:47;;;;;;;27.65;10.68;;;;;;;;;;4991668;28;20030;-64
2022/11/12 05:41:13;;;;;;;25.10;11.77;;;;;;;;;;4994730;28;20022;-64
2022/11/12 05:43:38;;;;;;;25.95;10.48;;;;;;;;;;5004587;28;20034;-64
2022/11/12 05:46:03;;;;;;;30.88;12.50;;;;;;;;;;4989284;28;20591;-65
2022/11/12 05:48:31;;;;;;;33.58;12.77;;;;;;;;;;4999256;28;20216;-65
2022/11/12 05:50:57;;;;;;;25.80;11.93;;;;;;;;;;4998189;28;20132;-64
2022/11/12 05:53:22;;;;;;;30.05;11.75;;;;;;;;;;4991114;28;20022;-65
2022/11/12 05:55:51;;;;;;;28.88;11.80;;;;;;;;;;4990249;28;20045;-72
2022/11/12 05:58:16;;;;;;;24.50;11.05;;;;;;;;;;4990792;28;20100;-65
2022/11/12 06:00:41;;;;;;;30.10;12.20;;;;;;;;;;4991340;28;20050;-64
2022/11/12 06:03:07;;;;;;;25.70;11.07;;;;;;;;;;4990245;28;20018;-64
2022/11/12 06:05:33;;;;;;;29.67;11.18;;;;;;;;;;4991074;28;20042;-63
2022/11/12 06:07:58;;;;;;;30.77;11.13;;;;;;;;;;4995767;28;20021;-65
2022/11/12 06:10:23;;;;;;;21.50;10.30;;;;;;;;;;4989779;28;20022;-64
2022/11/12 06:12:49;;;;;;;28.45;11.10;;;;;;;;;;4990992;28;20014;-66
2022/11/12 06:15:14;;;;;;;25.13;11.75;;;;;;;;;;4990864;28;20030;-65
2022/11/12 06:17:40;;;;;;;23.52;10.57;;;;;;;;;;4989090;28;20100;-62
2022/11/12 06:20:09;;;;;;;37.45;14.02;;;;;;;;;;4988658;28;20054;-65
2022/11/12 06:22:34;;;;;;;25.35;12.05;;;;;;;;;;5003411;28;20041;-65
2022/11/12 06:24:59;;;;;;;30.80;11.90;;;;;;;;;;4991517;28;20492;-64
2022/11/12 06:27:24;;;;;;;24.95;11.75;;;;;;;;;;4989392;28;20022;-66
2022/11/12 06:29:50;;;;;;;26.95;11.95;;;;;;;;;;4991039;28;20500;-63
2022/11/12 06:32:15;;;;;;;37.00;14.30;;;;;;;;;;4989603;28;20030;-67
2022/11/12 06:34:40;;;;;;;31.52;10.65;;;;;;;;;;4990468;28;20029;-65
2022/11/12 06:37:05;;;;;;;33.30;12.55;;;;;;;;;;4987553;28;20026;-67
2022/11/12 06:39:30;;;;;;;31.67;13.43;;;;;;;;;;4989588;28;20496;-66
2022/11/12 06:41:56;;;;;;;31.42;13.13;;;;;;;;;;4990041;28;20031;-67
2022/11/12 06:44:21;;;;;;;32.30;14.32;;;;;;;;;;4990440;28;20026;-64
2022/11/12 06:46:46;;;;;;;31.20;14.20;;;;;;;;;;4984243;28;20033;-67
2022/11/12 06:49:11;;;;;;;30.33;14.18;;;;;;;;;;4989762;28;20437;-66
2022/11/12 06:51:38;;;;;;;36.85;13.15;;;;;;;;;;4994865;28;20830;-66
2022/11/12 06:54:04;;;;;;;35.80;14.25;;;;;;;;;;5000919;28;20517;-68
2022/11/12 06:56:29;;;;;;;33.83;14.73;;;;;;;;;;4998368;28;20022;-63
2022/11/12 06:58:54;;;;;;;39.70;13.93;;;;;;;;;;4990018;28;20073;-65
2022/11/12 07:01:19;;;;;;;45.55;16.00;;;;;;;;;;4990014;28;20084;-65
2022/11/12 07:03:44;;;;;;;36.08;14.07;;;;;;;;;;4989612;28;20097;-66
2022/11/12 07:06:14;;;;;;;34.13;14.68;;;;;;;;;;4989887;28;20065;-63
2022/11/12 07:08:39;;;;;;;34.75;13.20;;;;;;;;;;5001786;28;20030;-65
2022/11/12 07:11:05;;;;;;;31.15;13.63;;;;;;;;;;4990169;28;20026;-66
2022/11/12 07:13:31;;;;;;;37.38;13.32;;;;;;;;;;4990550;28;20064;-64
2022/11/12 07:15:57;;;;;;;36.15;14.68;;;;;;;;;;4989966;28;20441;-65
2022/11/12 07:18:22;;;;;;;36.03;14.55;;;;;;;;;;4988602;28;20049;-66
2022/11/12 07:20:48;;;;;;;35.40;14.27;;;;;;;;;;4990601;28;20026;-64
2022/11/12 07:23:13;;;;;;;34.70;14.52;;;;;;;;;;4989630;28;20025;-67
2022/11/12 07:25:38;;;;;;;31.92;13.50;;;;;;;;;;4983391;28;20062;-66
2022/11/12 07:28:03;;;;;;;34.92;14.43;;;;;;;;;;4985945;28;20053;-66
2022/11/12 07:30:29;;;;;;;35.90;13.77;;;;;;;;;;4990897;28;20014;-68
2022/11/12 07:32:56;;;;;;;33.97;14.90;;;;;;;;;;4993888;28;20026;-67
2022/11/12 07:35:21;;;;;;;36.05;14.27;;;;;;;;;;4993833;28;20030;-65
2022/11/12 07:37:46;;;;;;;35.67;15.57;;;;;;;;;;4986779;28;20049;-67
2022/11/12 07:40:12;;;;;;;34.58;15.40;;;;;;;;;;4989327;28;20034;-67
2022/11/12 07:42:37;;;;;;;35.67;15.48;;;;;;;;;;4989257;28;20050;-64
2022/11/12 07:45:02;;;;;;;44.40;17.15;;;;;;;;;;4993189;28;20022;-67
2022/11/12 07:47:28;;;;;;;36.75;16.27;;;;;;;;;;4985658;28;20034;-65
2022/11/12 07:49:53;;;;;;;39.50;16.90;;;;;;;;;;4990944;28;20029;-66
2022/11/12 07:52:18;;;;;;;37.30;16.25;;;;;;;;;;4991173;28;20030;-66
2022/11/12 07:54:44;;;;;;;36.33;15.75;;;;;;;;;;4995135;28;20084;-67
2022/11/12 07:57:09;;;;;;;34.70;16.50;;;;;;;;;;4993216;28;20022;-64
2022/11/12 07:59:34;;;;;;;42.60;17.90;;;;;;;;;;4993154;28;20509;-66
2022/11/12 08:01:59;;;;;;;42.15;19.42;;;;;;;;;;4993094;28;20037;-66
2022/11/12 08:04:24;;;;;;;44.35;18.67;;;;;;;;;;4994105;28;20100;-67
2022/11/12 08:06:50;;;;;;;46.05;18.17;;;;;;;;;;5000866;28;20025;-66
2022/11/12 08:09:15;;;;;;;57.00;19.95;;;;;;;;;;5005384;28;20519;-67
2022/11/12 08:11:41;;;;;;;43.40;17.13;;;;;;;;;;4993870;28;20015;-67
2022/11/12 08:14:06;;;;;;;43.38;17.45;;;;;;;;;;4992741;28;20408;-65
2022/11/12 08:16:31;;;;;;;34.85;16.00;;;;;;;;;;4993284;28;20027;-66
2022/11/12 08:18:56;;;;;;;48.38;21.42;;;;;;;;;;4999325;28;20084;-66
2022/11/12 08:21:22;;;;;;;40.15;18.35;;;;;;;;;;5002280;28;20110;-65
2022/11/12 08:23:47;;;;;;;35.85;16.40;;;;;;;;;;4997111;28;20504;-66
2022/11/12 08:26:14;;;;;;;43.25;18.52;;;;;;;;;;4993563;28;20033;-64
2022/11/12 08:28:39;;;;;;;36.28;16.00;;;;;;;;;;4992595;28;20026;-67
2022/11/12 08:31:07;;;;;;;31.85;16.50;;;;;;;;;;4994104;28;20144;-67
2022/11/12 08:33:32;;;;;;;35.38;15.60;;;;;;;;;;4996915;28;20022;-67
2022/11/12 08:35:57;;;;;;;41.33;16.08;;;;;;;;;;5001488;28;20034;-66
2022/11/12 08:38:23;;;;;;;30.02;14.45;;;;;;;;;;4993229;28;20015;-66
2022/11/12 08:40:48;;;;;;;34.50;13.68;;;;;;;;;;4992807;28;20037;-66
2022/11/12 08:43:13;;;;;;;32.67;13.90;;;;;;;;;;4992758;28;20027;-67
2022/11/12 08:45:39;;;;;;;28.70;12.27;;;;;;;;;;4985179;28;20034;-66
2022/11/12 08:48:06;;;;;;;29.85;14.43;;;;;;;;;;4987455;28;20022;-63
2022/11/12 08:50:32;;;;;;;33.38;14.45;;;;;;;;;;4978728;28;20106;-66
2022/11/12 08:53:07;;;;;;;29.42;13.40;;;;;;;;;;4997836;28;20559;-65
2022/11/12 08:55:33;;;;;;;27.55;13.32;;;;;;;;;;4993767;28;20030;-65
2022/11/12 08:58:01;;;;;;;31.85;13.00;;;;;;;;;;4996170;28;20503;-67
2022/11/12 09:00:32;;;;;;;34.45;13.70;;;;;;;;;;4993070;28;20030;-65
2022/11/12 09:03:04;;;;;;;23.35;9.90;;;;;;;;;;4991515;28;20021;-70
2022/11/12 09:05:30;;;;;;;23.30;9.63;;;;;;;;;;4993038;28;20037;-65
2022/11/12 09:07:59;;;;;;;26.77;10.90;;;;;;;;;;4998623;28;20097;-66
2022/11/12 09:10:24;;;;;;;19.92;9.40;;;;;;;;;;4991708;28;20026;-67
2022/11/12 09:12:51;;;;;;;28.27;9.32;;;;;;;;;;4991941;28;20212;-66
2022/11/12 09:15:16;;;;;;;21.80;9.70;;;;;;;;;;4992225;28;20500;-68
2022/11/12 09:17:41;;;;;;;21.52;9.80;;;;;;;;;;4991835;28;20022;-70
2022/11/12 09:20:07;;;;;;;22.73;8.35;;;;;;;;;;4993781;28;20126;-70
2022/11/12 09:22:32;;;;;;;29.38;9.23;;;;;;;;;;4993215;28;20038;-71
2022/11/12 09:24:57;;;;;;;20.33;9.30;;;;;;;;;;4992647;28;20456;-68
2022/11/12 09:27:25;;;;;;;22.40;8.65;;;;;;;;;;4987911;28;20023;-70
2022/11/12 09:29:50;;;;;;;20.38;9.02;;;;;;;;;;4992561;28;20030;-69
2022/11/12 09:32:15;;;;;;;20.80;8.27;;;;;;;;;;4992863;28;20030;-70
2022/11/12 09:34:40;;;;;;;23.02;9.05;;;;;;;;;;4995059;28;20054;-70
2022/11/12 09:37:05;;;;;;;20.30;8.95;;;;;;;;;;4993239;28;20074;-70
2022/11/12 09:39:31;;;;;;;20.08;7.32;;;;;;;;;;4993599;28;20069;-69
2022/11/12 09:41:56;;;;;;;17.83;8.55;;;;;;;;;;4989462;28;20022;-69
2022/11/12 09:44:23;;;;;;;23.52;8.27;;;;;;;;;;5001899;28;20046;-69
2022/11/12 09:46:48;;;;;;;21.27;8.90;;;;;;;;;;4982186;28;20049;-69
2022/11/12 09:49:16;;;;;;;18.40;7.80;;;;;;;;;;4991335;28;20030;-70
2022/11/12 09:51:45;;;;;;;17.23;8.88;;;;;;;;;;4993111;28;20037;-69
2022/11/12 09:54:24;;;;;;;17.50;9.38;;;;;;;;;;4993056;28;20061;-70
2022/11/12 09:56:49;;;;;;;20.10;8.23;;;;;;;;;;4987879;28;20049;-67
2022/11/12 09:59:15;;;;;;;24.02;7.97;;;;;;;;;;4993321;28;20582;-68
2022/11/12 10:01:40;;;;;;;16.60;7.65;;;;;;;;;;4991192;28;20049;-63
2022/11/12 10:04:05;;;;;;;23.42;9.10;;;;;;;;;;4990340;28;20496;-65
2022/11/12 10:06:34;;;;;;;19.23;8.63;;;;;;;;;;4988898;28;20026;-70
2022/11/12 10:09:03;;;;;;;18.92;8.52;;;;;;;;;;4991563;28;20025;-69
2022/11/12 10:11:29;;;;;;;;;;;;;;;;;;4995402;28;20032;-67
2022/11/12 10:14:14;;;;;;;23.58;8.88;;;;;;;;;;5004884;28;19913;-69
2022/11/12 10:16:42;;;;;;;20.48;7.90;;;;;;;;;;5003506;28;20294;-69
2022/11/12 10:19:26;;;;;;;22.10;8.75;;;;;;;;;;5005424;28;20480;-70
2022/11/12 10:21:56;;;;;;;20.92;8.32;;;;;;;;;;5005496;28;20083;-70
2022/11/12 10:24:22;;;;;;;24.88;8.55;;;;;;;;;;5006390;28;20018;-69
2022/11/12 10:26:48;;;;;;;25.23;8.65;;;;;;;;;;5001907;28;20478;-69
2022/11/12 10:29:23;;;;;;;13.98;7.72;;;;;;;;;;5004882;28;20077;-69
2022/11/12 10:31:48;;;;;;;17.27;8.18;;;;;;;;;;5001409;28;20025;-71
2022/11/12 10:34:18;;;;;;;17.25;7.80;;;;;;;;;;5001984;28;20132;-68
2022/11/12 10:37:03;;;;;;;15.02;7.68;;;;;;;;;;5001361;28;20136;-68
2022/11/12 10:39:42;;;;;;;25.80;8.85;;;;;;;;;;4998523;28;20108;-69
2022/11/12 10:42:12;;;;;;;18.33;7.85;;;;;;;;;;5004479;28;20172;-69
2022/11/12 10:44:38;;;;;;;18.60;8.07;;;;;;;;;;5003487;28;20219;-67
2022/11/12 10:47:22;;;;;;;21.25;7.95;;;;;;;;;;5002309;28;20052;-68
2022/11/12 10:50:07;;;;;;;18.20;8.27;;;;;;;;;;5003035;28;20029;-68
2022/11/12 10:52:33;;;;;;;19.90;8.05;;;;;;;;;;4990111;28;20041;-69
2022/11/12 10:55:14;;;;;;;18.98;9.65;;;;;;;;;;4998442;28;20044;-68
2022/11/12 10:57:39;;;;;;;20.80;8.18;;;;;;;;;;5000915;28;20051;-68
2022/11/12 11:00:06;;;;;;;17.58;8.00;;;;;;;;;;5001235;28;20133;-69
2022/11/12 11:02:31;;;;;;;18.30;8.55;;;;;;;;;;4998893;28;20025;-68
2022/11/12 11:04:56;;;;;;;21.13;8.98;;;;;;;;;;5001500;28;20507;-70
2022/11/12 11:07:23;;;;;;;19.10;8.43;;;;;;;;;;4998887;28;20032;-68
2022/11/12 11:09:55;;;;;;;28.58;9.57;;;;;;;;;;5004191;28;20627;-68
2022/11/12 11:12:31;;;;;;;19.33;8.85;;;;;;;;;;5005821;28;20440;-71
2022/11/12 11:15:07;;;;;;;21.35;8.45;;;;;;;;;;5002616;28;20160;-71
2022/11/12 11:17:33;;;;;;;26.02;8.40;;;;;;;;;;5000874;28;20085;-70
2022/11/12 11:19:58;;;;;;;23.33;8.38;;;;;;;;;;5004511;28;20029;-70
2022/11/12 11:22:40;;;;;;;28.38;9.00;;;;;;;;;;5000621;28;20356;-70
2022/11/12 11:25:14;;;;;;;17.75;8.05;;;;;;;;;;5002089;28;20068;-68
2022/11/12 11:27:43;;;;;;;18.02;8.13;;;;;;;;;;4996563;28;20030;-71
2022/11/12 11:30:21;;;;;;;14.93;7.60;;;;;;;;;;4997821;28;20669;-73
2022/11/12 11:33:05;;;;;;;23.25;8.85;;;;;;;;;;5004586;28;20516;-69
2022/11/12 11:35:41;;;;;;;17.30;8.75;;;;;;;;;;5004650;28;20060;-70
2022/11/12 11:38:12;;;;;;;17.70;7.75;;;;;;;;;;4992064;28;20056;-71
2022/11/12 11:40:47;;;;;;;16.10;7.32;;;;;;;;;;4994776;28;20037;-67
2022/11/12 11:43:41;;;;;;;21.52;7.35;;;;;;;;;;4999818;28;20044;-68
2022/11/12 11:46:25;;;;;;;22.33;9.02;;;;;;;;;;4989245;28;21294;-69
2022/11/12 11:49:00;;;;;;;17.40;8.30;;;;;;;;;;5000089;28;20026;-70
2022/11/12 11:51:43;;;;;;;19.70;9.88;;;;;;;;;;5001900;28;20033;-69
2022/11/12 11:54:14;;;;;;;19.48;9.52;;;;;;;;;;5003612;28;20041;-69
2022/11/12 11:56:41;;;;;;;21.15;9.30;;;;;;;;;;5001506;28;20539;-68
2022/11/12 11:59:18;;;;;;;19.50;8.43;;;;;;;;;;5002913;28;20054;-69
2022/11/12 12:01:55;;;;;;;23.45;7.95;;;;;;;;;;5002142;28;20101;-69
2022/11/12 12:04:20;;;;;;;16.60;6.85;;;;;;;;;;5001539;28;20488;-71
2022/11/12 12:06:48;;;;;;;21.50;7.80;;;;;;;;;;5003682;28;20029;-68
2022/11/12 12:09:22;;;;;;;21.10;8.50;;;;;;;;;;5001503;28;20029;-69
2022/11/12 12:11:55;;;;;;;21.95;7.90;;;;;;;;;;5002178;28;20022;-70
2022/11/12 12:14:38;;;;;;;17.52;7.70;;;;;;;;;;5002699;28;20075;-69
2022/11/12 12:17:03;;;;;;;15.20;7.03;;;;;;;;;;5000445;28;20044;-68
2022/11/12 12:19:47;;;;;;;20.70;7.85;;;;;;;;;;5001791;28;20030;-69
2022/11/12 12:22:14;;;;;;;19.85;8.73;;;;;;;;;;4999513;28;20014;-67
2022/11/12 12:24:44;;;;;;;19.17;7.80;;;;;;;;;;5004760;28;20566;-69
2022/11/12 12:27:13;;;;;;;21.33;8.15;;;;;;;;;;5002342;28;20033;-69
2022/11/12 12:29:39;;;;;;;16.63;6.88;;;;;;;;;;5003893;28;20029;-69
2022/11/12 12:32:23;;;;;;;15.77;6.63;;;;;;;;;;5001150;28;20041;-71
2022/11/12 12:34:51;;;;;;;16.27;6.50;;;;;;;;;;5004910;28;20032;-72
2022/11/12 12:37:34;;;;;;;15.35;5.40;;;;;;;;;;5003236;28;20026;-68
2022/11/12 12:40:02;;;;;;;17.63;6.30;;;;;;;;;;5001222;28;20022;-71
2022/11/12 12:42:41;;;;;;;17.93;5.90;;;;;;;;;;5001061;28;20587;-70
2022/11/12 12:45:20;;;;;;;23.17;5.53;;;;;;;;;;5003773;28;20068;-71
2022/11/12 12:47:46;;;;;;;14.98;5.82;;;;;;;;;;4996022;28;20053;-72
2022/11/12 12:50:13;;;;;;;15.63;5.63;;;;;;;;;;5003982;28;20423;-67
2022/11/12 12:52:56;;;;;;;14.63;4.50;;;;;;;;;;5003727;28;20045;-69
2022/11/12 12:55:41;;;;;;;10.55;4.70;;;;;;;;;;5004542;28;20022;-69
2022/11/12 12:58:25;;;;;;;14.25;4.68;;;;;;;;;;5001407;28;20025;-70
2022/11/12 13:00:51;;;;;;;14.05;5.18;;;;;;;;;;5000070;28;20532;-69
2022/11/12 13:03:35;;;;;;;11.32;4.13;;;;;;;;;;4988321;28;20125;-69
2022/11/12 13:06:05;;;;;;;9.48;3.15;;;;;;;;;;4999508;28;20387;-71
2022/11/12 13:08:34;;;;;;;9.27;2.88;;;;;;;;;;4992855;28;20038;-71
2022/11/12 13:10:59;;;;;;;8.90;2.97;;;;;;;;;;4991962;28;20476;-71
2022/11/12 13:13:29;;;;;;;8.73;3.38;;;;;;;;;;4993099;28;20037;-69
2022/11/12 13:15:55;;;;;;;10.20;3.88;;;;;;;;;;4995923;28;20088;-68
2022/11/12 13:18:36;;;;;;;17.35;4.10;;;;;;;;;;4991977;28;20072;-69
2022/11/12 13:21:07;;;;;;;12.98;4.20;;;;;;;;;;4993554;28;20069;-67
2022/11/12 13:24:06;;;;;;;17.08;4.65;;;;;;;;;;4993246;28;20492;-70
2022/11/12 13:26:43;;;;;;;14.38;4.32;;;;;;;;;;4980351;28;20041;-69
2022/11/12 13:29:17;;;;;;;9.57;4.45;;;;;;;;;;4992932;28;20034;-70
2022/11/12 13:31:43;;;;;;;9.88;3.83;;;;;;;;;;4993394;28;20029;-68
2022/11/12 13:34:29;;;;;;;9.93;3.95;;;;;;;;;;4992714;28;20102;-69
2022/11/12 13:37:01;;;;;;;14.55;4.70;;;;;;;;;;4999021;28;20105;-69
2022/11/12 13:39:27;;;;;;;8.73;3.95;;;;;;;;;;5005624;28;20082;-71
2022/11/12 13:44:42;;;;;;;20.65;4.53;;;;;;;;;;5000818;28;20033;-73
2022/11/12 13:47:16;;;;;;;17.05;5.85;;;;;;;;;;4988208;28;20014;-71
2022/11/12 13:49:42;;;;;;;14.00;5.47;;;;;;;;;;4993229;28;20586;-71
2022/11/12 13:52:08;;;;;;;13.55;5.07;;;;;;;;;;4992190;28;20071;-70
2022/11/12 13:54:34;;;;;;;16.80;5.90;;;;;;;;;;4994416;28;20085;-69
2022/11/12 13:57:13;;;;;;;13.32;4.97;;;;;;;;;;4990968;28;20496;-69
2022/11/12 13:59:38;;;;;;;15.07;4.40;;;;;;;;;;4991495;28;20018;-73
2022/11/12 14:02:12;;;;;;;12.18;4.88;;;;;;;;;;4993546;28;20041;-70
2022/11/12 14:04:38;;;;;;;11.27;4.35;;;;;;;;;;4994337;28;20022;-70
2022/11/12 14:07:27;;;;;;;16.50;5.07;;;;;;;;;;4994099;28;20026;-70
2022/11/12 14:09:55;;;;;;;17.58;5.80;;;;;;;;;;4992220;28;20046;-73
2022/11/12 14:12:35;;;;;;;13.15;6.15;;;;;;;;;;4994132;28;20029;-72
2022/11/12 14:15:24;;;;;;;16.90;5.57;;;;;;;;;;4994146;28;20384;-70
2022/11/12 14:18:07;;;;;;;14.75;5.53;;;;;;;;;;5001198;28;20073;-72
2022/11/12 14:20:37;;;;;;;19.15;7.10;;;;;;;;;;5002662;28;20491;-69
2022/11/12 14:23:09;;;;;;;29.23;9.50;;;;;;;;;;5001232;28;20037;-71
2022/11/12 14:25:44;;;;;;;41.08;14.07;;;;;;;;;;4992222;28;20034;-71
2022/11/12 14:28:29;;;;;;;29.05;11.20;;;;;;;;;;4993158;28;20033;-71
2022/11/12 14:30:54;;;;;;;38.42;13.98;;;;;;;;;;4980922;28;20037;-71
2022/11/12 14:33:21;;;;;;;36.05;11.75;;;;;;;;;;4991646;28;20030;-69
2022/11/12 14:35:47;;;;;;;40.42;13.02;;;;;;;;;;4988967;28;20497;-72
2022/11/12 14:38:21;;;;;;;56.75;16.30;;;;;;;;;;4985274;28;20188;-72
2022/11/12 14:40:50;;;;;;;34.50;12.07;;;;;;;;;;4991225;28;20014;-71
2022/11/12 14:43:21;;;;;;;30.17;10.35;;;;;;;;;;4993069;28;20097;-71
2022/11/12 14:45:47;;;;;;;24.80;9.52;;;;;;;;;;4989824;28;20022;-72
2022/11/12 14:48:13;;;;;;;27.10;10.23;;;;;;;;;;4988273;28;20022;-72
2022/11/12 14:50:40;;;;;;;35.95;11.60;;;;;;;;;;4989984;28;20033;-72
2022/11/12 14:53:14;;;;;;;35.45;11.07;;;;;;;;;;5002963;28;20038;-69